Time;durP1;ratioP1;P1;durP2;ratioP2;P2;SDS_P1;SDS_P2;PMS_P1;PMS_P2;Temp;Humidity;BMP_temperature;BMP_pressure;BME280_temperature;BME280_humidity;BME280_pressure;Samples;Min_cycle;Max_cycle;Signal;HPM_P1;HPM_P2
2023/03/05 00:01:23;;;;;;;2.30;1.40;;;;;;;-0.27;80.42;147261.03;5149647;27;20304;-67
2023/03/05 00:03:51;;;;;;;2.75;1.40;;;;;;;-0.19;80.41;147282.66;5154520;27;20033;-65
2023/03/05 00:06:21;;;;;;;1.00;0.90;;;;;;;-0.11;80.96;147301.75;5156732;27;20083;-64
2023/03/05 00:08:47;;;;;;;1.23;1.13;;;;;;;-0.19;80.47;147281.41;5130363;27;20030;-65
2023/03/05 00:11:13;;;;;;;1.33;1.10;;;;;;;-0.10;80.26;147303.00;5139999;27;20090;-66
2023/03/05 00:13:39;;;;;;;1.77;1.45;;;;;;;-0.05;80.04;147315.72;5162935;27;20082;-65
2023/03/05 00:16:10;;;;;;;1.38;1.27;;;;;;;0.02;80.42;147332.28;5155966;27;20035;-65
2023/03/05 00:18:36;;;;;;;1.30;1.20;;;;;;;0.06;79.51;147343.69;5155015;27;20039;-66
2023/03/05 00:21:03;;;;;;;1.08;0.93;;;;;;;-0.30;79.16;147253.44;5152461;27;20027;-66
2023/03/05 00:23:28;;;;;;;2.38;0.90;;;;;;;-0.04;79.05;147319.53;5119198;28;20281;-65
2023/03/05 00:25:54;;;;;;;1.63;1.27;;;;;;;-0.20;79.36;147278.84;5154556;27;20035;-66
2023/03/05 00:28:19;;;;;;;1.38;1.15;;;;;;;-0.03;79.86;147322.09;5129496;27;20050;-64
2023/03/05 00:30:45;;;;;;;3.33;1.52;;;;;;;-0.07;80.44;147311.91;5137562;27;20259;-65
2023/03/05 00:33:12;;;;;;;1.48;1.10;;;;;;;-0.04;79.80;147318.28;5152702;27;20045;-65
2023/03/05 00:35:45;;;;;;;1.42;1.33;;;;;;;-0.05;79.74;147315.72;5158011;27;20023;-65
2023/03/05 00:38:12;;;;;;;1.90;1.30;;;;;;;0.00;80.37;147328.47;5153356;27;20035;-65
2023/03/05 00:40:39;;;;;;;3.47;1.20;;;;;;;0.05;79.26;147339.88;5145708;27;20049;-65
2023/03/05 00:43:06;;;;;;;1.08;0.98;;;;;;;0.02;80.08;147333.53;5155115;27;20506;-65
2023/03/05 00:45:32;;;;;;;2.15;1.00;;;;;;;-0.01;79.17;147327.16;5147313;27;20043;-65
2023/03/05 00:47:58;;;;;;;2.13;1.20;;;;;;;0.06;79.29;147343.69;5146841;27;20042;-65
2023/03/05 00:50:24;;;;;;;2.63;0.95;;;;;;;-0.25;79.34;147266.16;5147481;27;20023;-66
2023/03/05 00:52:49;;;;;;;2.63;1.30;;;;;;;-0.17;79.07;147286.50;5149169;27;20224;-65
2023/03/05 00:55:15;;;;;;;3.22;0.98;;;;;;;-0.22;79.56;147273.78;5152902;27;20052;-65
2023/03/05 00:57:41;;;;;;;3.20;1.33;;;;;;;-0.21;80.38;147277.59;5147224;27;20052;-64
2023/03/05 01:00:07;;;;;;;1.73;1.23;;;;;;;-0.29;79.42;147255.97;5151958;27;20082;-65
2023/03/05 01:02:33;;;;;;;2.50;1.25;;;;;;;-0.26;79.68;147263.59;5151109;27;20038;-65
2023/03/05 01:04:58;;;;;;;2.40;1.20;;;;;;;-0.15;78.82;147291.56;5146828;27;20398;-65
2023/03/05 01:07:24;;;;;;;2.45;1.45;;;;;;;-0.13;79.10;147296.63;5155868;27;20026;-66
2023/03/05 01:09:49;;;;;;;2.60;1.40;;;;;;;-0.19;78.93;147281.41;5147995;27;20062;-65
2023/03/05 01:12:15;;;;;;;1.48;1.20;;;;;;;-0.23;79.29;147272.53;5154596;27;20030;-64
2023/03/05 01:14:40;;;;;;;2.22;1.65;;;;;;;-0.40;78.28;147229.28;5143890;27;20300;-65
2023/03/05 01:17:07;;;;;;;2.30;1.23;;;;;;;-0.43;79.12;147221.66;5146629;27;20050;-65
2023/03/05 01:19:32;;;;;;;1.98;1.10;;;;;;;-0.54;78.90;147196.25;5156520;27;20031;-66
2023/03/05 01:21:58;;;;;;;1.60;1.15;;;;;;;-0.34;79.19;147244.56;5158671;27;20188;-65
2023/03/05 01:24:24;;;;;;;1.33;1.15;;;;;;;-0.43;79.20;147222.97;5140856;27;20236;-64
2023/03/05 01:26:50;;;;;;;1.55;1.10;;;;;;;-0.47;78.72;147211.47;5149303;27;20107;-65
2023/03/05 01:29:16;;;;;;;1.08;0.98;;;;;;;-0.53;78.69;147198.81;5149780;27;20022;-64
2023/03/05 01:31:41;;;;;;;1.55;1.08;;;;;;;-0.35;79.04;147242.00;5156135;27;20232;-63
2023/03/05 01:34:07;;;;;;;1.20;1.10;;;;;;;-0.49;78.53;147207.69;5153422;27;20020;-66
2023/03/05 01:36:33;;;;;;;1.58;1.02;;;;;;;-0.52;77.69;147201.31;5147182;27;20082;-65
2023/03/05 01:38:58;;;;;;;1.27;1.05;;;;;;;-0.63;78.89;147173.34;5163675;27;20268;-64
2023/03/05 01:41:24;;;;;;;1.63;1.13;;;;;;;-0.52;79.25;147200.06;5128010;27;20285;-64
2023/03/05 01:43:51;;;;;;;0.80;0.80;;;;;;;-0.44;78.28;147219.09;5156434;27;20035;-63
2023/03/05 01:46:33;;;;;;;1.95;1.00;;;;;;;-0.33;77.53;147245.81;5136516;27;20027;-64
2023/03/05 01:49:04;;;;;;;;;;;;;;;-0.27;78.23;147261.03;5143827;27;20067;-65
2023/03/05 01:52:05;;;;;;;1.10;1.00;;;;;;;-0.25;78.08;147266.16;5131001;27;19952;-64
2023/03/05 01:54:43;;;;;;;1.83;1.13;;;;;;;-0.42;78.31;147224.22;5144269;27;20105;-64
2023/03/05 01:57:14;;;;;;;1.17;0.95;;;;;;;-0.31;78.18;147252.19;5150505;27;20027;-64
2023/03/05 01:59:42;;;;;;;1.53;1.00;;;;;;;-0.43;78.53;147221.66;5146379;27;20312;-64
2023/03/05 02:02:08;;;;;;;1.98;1.27;;;;;;;-0.53;77.23;147197.50;5157422;27;20026;-65
2023/03/05 02:04:42;;;;;;;2.05;1.13;;;;;;;-0.80;78.05;147131.44;5130098;27;20215;-65
2023/03/05 02:07:09;;;;;;;1.70;1.02;;;;;;;-0.70;77.83;147156.88;5152852;27;20027;-65
2023/03/05 02:09:38;;;;;;;1.63;1.20;;;;;;;-0.81;77.73;147128.91;5149433;27;20022;-65
2023/03/05 02:12:04;;;;;;;1.90;1.20;;;;;;;-0.70;77.65;147155.56;5149535;27;20022;-64
2023/03/05 02:14:31;;;;;;;3.40;1.40;;;;;;;-0.74;78.21;147145.41;5153315;27;20043;-64
2023/03/05 02:16:57;;;;;;;2.72;1.10;;;;;;;-0.71;78.48;147153.06;5149691;27;20188;-65
2023/03/05 02:19:23;;;;;;;2.00;1.30;;;;;;;-0.72;77.58;147151.75;5158053;27;20027;-65
2023/03/05 02:21:49;;;;;;;1.45;0.98;;;;;;;-0.62;77.58;147175.91;5149647;27;20027;-64
2023/03/05 02:24:30;;;;;;;2.42;1.50;;;;;;;-0.62;78.30;147174.66;5148934;27;20061;-66
2023/03/05 02:26:56;;;;;;;2.60;1.15;;;;;;;-0.66;77.77;147165.75;5138286;27;20028;-64
2023/03/05 02:29:23;;;;;;;1.10;1.00;;;;;;;-0.70;78.72;147156.88;5144463;27;20166;-64
2023/03/05 02:31:48;;;;;;;1.40;1.10;;;;;;;-0.56;78.43;147191.13;5150036;27;20227;-64
2023/03/05 02:34:14;;;;;;;1.80;1.25;;;;;;;-0.53;77.94;147198.81;5144486;27;20031;-65
2023/03/05 02:36:40;;;;;;;3.17;1.15;;;;;;;-0.50;77.25;147205.13;5153699;27;20249;-64
2023/03/05 02:39:05;;;;;;;2.63;1.00;;;;;;;-0.60;77.34;147179.72;5131454;27;20057;-65
2023/03/05 02:41:31;;;;;;;1.38;0.90;;;;;;;-0.49;77.28;147206.44;5144443;27;20053;-65
2023/03/05 02:43:57;;;;;;;1.63;1.10;;;;;;;-0.56;77.53;147189.88;5158330;27;20039;-65
2023/03/05 02:46:23;;;;;;;1.95;1.30;;;;;;;-0.60;77.13;147181.03;5126496;27;20083;-64
2023/03/05 02:48:48;;;;;;;2.53;1.20;;;;;;;-0.57;77.04;147187.34;5126524;27;20047;-65
2023/03/05 02:51:15;;;;;;;2.10;1.15;;;;;;;-0.49;77.85;147207.69;5149049;27;20030;-65
2023/03/05 02:53:40;;;;;;;2.38;1.20;;;;;;;-0.61;77.24;147178.47;5145217;27;20058;-65
2023/03/05 02:56:06;;;;;;;1.10;1.00;;;;;;;-0.63;75.82;147173.34;5159051;27;20324;-64
2023/03/05 02:58:32;;;;;;;1.80;1.10;;;;;;;-0.58;77.22;147186.09;5150173;27;20086;-64
2023/03/05 03:00:57;;;;;;;3.33;1.60;;;;;;;-0.74;76.43;147145.41;5155285;27;20046;-64
2023/03/05 03:03:23;;;;;;;2.00;1.35;;;;;;;-0.64;78.14;147169.56;5153650;27;20089;-64
2023/03/05 03:05:48;;;;;;;2.67;1.38;;;;;;;-0.59;77.90;147182.28;5126777;27;20292;-64
2023/03/05 03:08:14;;;;;;;2.15;1.30;;;;;;;-0.61;77.17;147178.47;5158373;27;20068;-64
2023/03/05 03:10:40;;;;;;;2.35;1.20;;;;;;;-0.74;77.31;147145.41;5150905;27;20019;-64
2023/03/05 03:13:05;;;;;;;1.27;1.08;;;;;;;-0.65;77.17;147168.28;5144521;27;20331;-64
2023/03/05 03:15:31;;;;;;;2.17;1.10;;;;;;;-0.82;76.26;147126.38;5150254;27;20034;-64
2023/03/05 03:17:57;;;;;;;2.45;1.30;;;;;;;-0.87;77.50;147114.94;5144351;27;20235;-64
2023/03/05 03:20:23;;;;;;;1.02;0.93;;;;;;;-0.91;78.17;147104.78;5157812;27;20071;-64
2023/03/05 03:22:48;;;;;;;2.92;1.10;;;;;;;-0.87;78.25;147114.94;5151139;27;20065;-64
2023/03/05 03:25:17;;;;;;;2.30;1.20;;;;;;;-1.15;77.92;147045.06;5120799;27;20117;-64
2023/03/05 03:27:43;;;;;;;2.25;1.20;;;;;;;-1.01;77.94;147079.38;5145888;27;20031;-64
2023/03/05 03:30:09;;;;;;;1.67;1.10;;;;;;;-0.95;79.02;147093.34;5148043;27;20026;-64
2023/03/05 03:32:34;;;;;;;2.67;1.23;;;;;;;-0.93;79.98;147098.41;5145154;27;20026;-64
2023/03/05 03:35:00;;;;;;;1.10;1.00;;;;;;;-1.16;79.47;147042.50;5150585;27;20027;-64
2023/03/05 03:37:26;;;;;;;1.02;0.90;;;;;;;-1.16;80.36;147042.50;5145114;27;20043;-64
2023/03/05 03:39:52;;;;;;;3.08;1.23;;;;;;;-0.95;80.23;147094.59;5150829;27;20023;-64
2023/03/05 03:42:20;;;;;;;1.25;1.10;;;;;;;-1.05;80.11;147069.22;5148801;27;20049;-64
2023/03/05 03:44:45;;;;;;;1.70;1.20;;;;;;;-1.14;81.60;147046.31;5154848;27;20095;-65
2023/03/05 03:47:11;;;;;;;1.83;1.42;;;;;;;-1.19;80.59;147033.66;5151923;27;20026;-64
2023/03/05 03:49:36;;;;;;;2.67;1.60;;;;;;;-1.14;81.06;147047.63;5143866;27;20354;-64
2023/03/05 03:52:02;;;;;;;1.90;1.15;;;;;;;-1.36;80.87;146993.00;5151833;27;20026;-65
2023/03/05 03:54:28;;;;;;;1.65;1.17;;;;;;;-1.37;81.98;146989.19;5130962;27;20075;-64
2023/03/05 03:56:53;;;;;;;3.47;1.42;;;;;;;-1.12;82.13;147051.44;5155814;27;20187;-64
2023/03/05 03:59:19;;;;;;;2.63;1.38;;;;;;;-1.21;82.49;147029.84;5133007;27;20027;-64
2023/03/05 04:01:45;;;;;;;2.08;1.23;;;;;;;-1.10;81.67;147057.78;5125135;28;20038;-64
2023/03/05 04:04:13;;;;;;;1.95;1.50;;;;;;;-1.09;80.81;147060.28;5152012;27;20053;-65
2023/03/05 04:06:39;;;;;;;2.97;1.27;;;;;;;-1.06;81.98;147066.66;5125837;27;20022;-64
2023/03/05 04:09:06;;;;;;;2.35;1.25;;;;;;;-0.98;81.96;147085.69;5143334;27;20038;-65
2023/03/05 04:11:33;;;;;;;2.00;1.48;;;;;;;-1.25;82.35;147019.69;5143330;27;20035;-65
2023/03/05 04:13:58;;;;;;;5.43;1.80;;;;;;;-1.17;81.20;147038.72;5144430;27;20027;-65
2023/03/05 04:16:24;;;;;;;2.53;1.70;;;;;;;-1.21;81.69;147029.84;5152436;27;20055;-64
2023/03/05 04:18:50;;;;;;;1.48;1.17;;;;;;;-1.16;81.82;147042.50;5144665;27;20027;-65
2023/03/05 04:21:15;;;;;;;2.95;1.30;;;;;;;-1.13;81.82;147048.88;5140197;27;20307;-65
2023/03/05 04:23:41;;;;;;;1.63;1.20;;;;;;;-1.15;81.94;147045.06;5133557;27;20056;-65
2023/03/05 04:26:06;;;;;;;2.58;1.48;;;;;;;-1.05;80.91;147069.22;5139923;27;20027;-65
2023/03/05 04:28:32;;;;;;;1.90;1.33;;;;;;;-1.04;80.21;147071.75;5147866;27;20022;-63
2023/03/05 04:30:58;;;;;;;3.53;1.45;;;;;;;-1.02;79.75;147075.56;5153218;27;20038;-65
2023/03/05 04:33:23;;;;;;;1.35;1.10;;;;;;;-1.11;79.08;147053.94;5142582;28;20027;-65
2023/03/05 04:35:49;;;;;;;1.83;1.17;;;;;;;-1.13;80.25;147050.13;5159080;27;20030;-63
2023/03/05 04:38:15;;;;;;;2.97;1.10;;;;;;;-1.16;79.37;147041.28;5142775;27;20055;-64
2023/03/05 04:40:41;;;;;;;2.08;1.13;;;;;;;-1.22;79.94;147027.28;5153439;27;20022;-64
2023/03/05 04:43:07;;;;;;;3.25;1.10;;;;;;;-1.11;79.45;147053.94;5143666;27;20027;-65
2023/03/05 04:45:33;;;;;;;1.95;1.10;;;;;;;-1.26;80.00;147017.13;5142698;27;20261;-64
2023/03/05 04:47:59;;;;;;;3.15;1.25;;;;;;;-1.08;79.98;147061.59;5143310;28;20148;-63
2023/03/05 04:50:24;;;;;;;2.15;1.35;;;;;;;-1.16;79.79;147041.28;5143183;27;20197;-64
2023/03/05 04:52:50;;;;;;;3.05;1.50;;;;;;;-1.22;79.54;147028.56;5157646;27;20041;-64
2023/03/05 04:55:17;;;;;;;1.90;1.08;;;;;;;-1.06;79.65;147066.66;5149508;27;20217;-64
2023/03/05 04:57:43;;;;;;;2.08;1.30;;;;;;;-1.09;79.18;147060.28;5154768;27;20363;-64
2023/03/05 05:00:13;;;;;;;2.00;1.33;;;;;;;-1.11;78.62;147055.22;5149994;27;20312;-64
2023/03/05 05:02:46;;;;;;;3.30;1.75;;;;;;;-1.02;79.39;147076.81;5134083;27;20034;-65
2023/03/05 05:05:15;;;;;;;3.42;1.13;;;;;;;-1.02;78.72;147076.81;5129124;27;20054;-65
2023/03/05 05:07:41;;;;;;;1.25;1.10;;;;;;;-1.07;78.71;147064.09;5149081;27;20050;-64
2023/03/05 05:10:08;;;;;;;2.33;1.35;;;;;;;-1.23;79.89;147026.03;5157833;27;20022;-65
2023/03/05 05:12:33;;;;;;;3.80;1.25;;;;;;;-0.98;79.34;147085.69;5150540;27;20237;-65
2023/03/05 05:14:59;;;;;;;2.25;1.20;;;;;;;-0.85;78.61;147117.50;5129483;27;20072;-65
2023/03/05 05:17:26;;;;;;;2.10;1.35;;;;;;;-0.84;79.34;147121.31;5157590;27;20316;-65
2023/03/05 05:19:52;;;;;;;1.83;1.20;;;;;;;-1.03;79.05;147073.00;5164105;27;20072;-64
2023/03/05 05:22:17;;;;;;;2.95;1.60;;;;;;;-0.95;78.19;147093.34;5162111;27;20031;-64
2023/03/05 05:24:43;;;;;;;2.15;1.30;;;;;;;-1.00;78.37;147081.88;5159401;27;20343;-64
2023/03/05 05:27:09;;;;;;;1.80;1.42;;;;;;;-0.90;79.09;147107.31;5130370;27;20065;-64
2023/03/05 05:29:34;;;;;;;3.35;1.50;;;;;;;-0.85;78.64;147118.75;5135809;27;20031;-64
2023/03/05 05:32:00;;;;;;;3.00;1.40;;;;;;;-0.68;79.67;147160.69;5111153;28;20031;-64
2023/03/05 05:34:26;;;;;;;1.83;1.02;;;;;;;-0.70;78.56;147155.56;5156089;27;20023;-64
2023/03/05 05:36:51;;;;;;;1.70;1.27;;;;;;;-0.73;77.99;147149.25;5150259;27;20023;-66
2023/03/05 05:39:17;;;;;;;4.68;1.45;;;;;;;-0.72;79.55;147151.75;5149713;27;20086;-65
2023/03/05 05:41:43;;;;;;;2.33;1.55;;;;;;;-0.65;78.78;147168.28;5156051;27;20345;-65
2023/03/05 05:44:08;;;;;;;4.03;1.73;;;;;;;-0.57;79.09;147188.63;5150760;27;20051;-66
2023/03/05 05:46:34;;;;;;;3.47;1.40;;;;;;;-0.81;78.84;147127.63;5140131;27;20023;-65
2023/03/05 05:49:00;;;;;;;1.30;1.20;;;;;;;-0.83;80.03;147123.81;5146142;27;20061;-65
2023/03/05 05:51:25;;;;;;;3.67;1.50;;;;;;;-0.72;79.88;147151.75;5148875;27;20046;-65
2023/03/05 05:53:51;;;;;;;3.65;1.10;;;;;;;-0.96;78.90;147092.06;5146235;27;20030;-65
2023/03/05 05:56:17;;;;;;;3.15;1.55;;;;;;;-0.75;79.94;147144.16;5150978;27;20029;-64
2023/03/05 05:58:46;;;;;;;2.67;1.40;;;;;;;-0.96;80.42;147092.06;5141184;27;20030;-64
2023/03/05 06:01:23;;;;;;;3.35;1.20;;;;;;;-0.88;80.53;147111.13;5133170;27;20015;-64
2023/03/05 06:03:49;;;;;;;2.03;1.27;;;;;;;-0.72;81.60;147150.50;5152284;27;20032;-64
2023/03/05 06:06:17;;;;;;;2.45;1.42;;;;;;;-0.56;80.69;147189.88;5151417;27;20062;-64
2023/03/05 06:08:43;;;;;;;3.88;1.42;;;;;;;-0.67;81.90;147163.22;5145787;27;20102;-63
2023/03/05 06:11:10;;;;;;;2.00;1.25;;;;;;;-0.56;80.86;147191.13;5159898;27;20023;-64
2023/03/05 06:13:36;;;;;;;2.28;1.30;;;;;;;-0.74;81.56;147145.41;5153258;27;20025;-63
2023/03/05 06:16:05;;;;;;;3.13;1.50;;;;;;;-0.81;81.14;147128.91;5163646;27;20067;-64
2023/03/05 06:18:31;;;;;;;1.83;1.33;;;;;;;-0.71;82.31;147153.06;5160552;27;20023;-64
2023/03/05 06:21:00;;;;;;;2.75;1.20;;;;;;;-0.74;82.27;147145.41;5145430;27;20102;-64
2023/03/05 06:23:26;;;;;;;1.52;1.20;;;;;;;-0.67;83.46;147163.22;5157585;27;20023;-65
2023/03/05 06:25:52;;;;;;;2.80;1.80;;;;;;;-0.60;82.27;147181.03;5125074;28;20100;-63
2023/03/05 06:28:19;;;;;;;3.20;1.50;;;;;;;-0.78;81.51;147136.53;5136610;27;20058;-64
2023/03/05 06:30:44;;;;;;;3.15;1.33;;;;;;;-0.81;81.63;147128.91;5131259;27;20028;-64
2023/03/05 06:33:10;;;;;;;2.28;1.50;;;;;;;-0.63;81.35;147172.09;5126623;27;20131;-65
2023/03/05 06:35:39;;;;;;;3.58;1.65;;;;;;;-0.69;81.39;147158.13;5120004;28;20023;-64
2023/03/05 06:38:06;;;;;;;4.43;1.75;;;;;;;-0.67;82.08;147163.22;5113778;28;20049;-63
2023/03/05 06:40:32;;;;;;;5.57;1.48;;;;;;;-0.68;82.10;147159.38;5119910;27;20023;-63
2023/03/05 06:42:58;;;;;;;3.33;1.55;;;;;;;-0.68;81.44;147159.38;5133807;27;20027;-65
2023/03/05 06:45:23;;;;;;;5.03;2.10;;;;;;;-0.73;82.12;147149.25;5127997;27;20043;-64
2023/03/05 06:47:49;;;;;;;1.85;1.40;;;;;;;-0.80;81.82;147130.16;5128478;27;20062;-65
2023/03/05 06:50:14;;;;;;;1.77;1.50;;;;;;;-0.60;82.99;147179.72;5106244;28;20282;-63
2023/03/05 06:52:40;;;;;;;1.80;1.45;;;;;;;-0.68;82.85;147160.69;5124543;28;20074;-63
2023/03/05 06:55:07;;;;;;;2.50;1.48;;;;;;;-0.65;82.20;147168.28;5114246;27;20050;-64
2023/03/05 06:57:33;;;;;;;3.17;1.48;;;;;;;-0.55;81.75;147193.69;5129079;27;20031;-65
2023/03/05 06:59:58;;;;;;;3.85;1.52;;;;;;;-0.52;81.69;147200.06;5135950;27;20170;-65
2023/03/05 07:02:24;;;;;;;2.97;1.63;;;;;;;-0.56;82.04;147191.13;5131855;27;20028;-64
2023/03/05 07:04:49;;;;;;;2.95;1.50;;;;;;;-0.37;81.72;147238.19;5124733;27;20084;-65
2023/03/05 07:07:15;;;;;;;2.95;1.63;;;;;;;-0.27;82.00;147261.03;5133403;27;20118;-65
2023/03/05 07:09:43;;;;;;;3.72;1.95;;;;;;;-0.39;81.32;147231.81;5129415;27;20027;-63
2023/03/05 07:12:10;;;;;;;5.30;2.10;;;;;;;-0.43;81.81;147221.66;5142648;27;20030;-63
2023/03/05 07:14:37;;;;;;;3.22;2.00;;;;;;;-0.45;81.90;147216.59;5110478;28;20036;-64
2023/03/05 07:17:05;;;;;;;4.63;2.20;;;;;;;-0.28;81.76;147258.53;5121024;28;20342;-66
2023/03/05 07:19:30;;;;;;;4.00;2.20;;;;;;;-0.27;80.73;147261.03;5128655;27;20042;-64
2023/03/05 07:21:56;;;;;;;5.32;2.58;;;;;;;-0.33;81.11;147245.81;5104385;28;20296;-65
2023/03/05 07:24:23;;;;;;;3.92;2.38;;;;;;;-0.21;80.74;147277.59;5131718;27;20046;-65
2023/03/05 07:26:49;;;;;;;5.80;2.17;;;;;;;-0.11;81.40;147301.75;5143906;27;20099;-65
2023/03/05 07:29:14;;;;;;;4.63;2.33;;;;;;;-0.05;80.44;147315.72;5126493;27;20043;-65
2023/03/05 07:31:40;;;;;;;4.90;2.28;;;;;;;-0.12;80.33;147299.19;5137504;27;20506;-64
2023/03/05 07:34:05;;;;;;;4.15;2.50;;;;;;;-0.15;80.86;147291.56;5134347;27;20077;-64
2023/03/05 07:36:33;;;;;;;4.47;2.40;;;;;;;-0.31;80.68;147250.88;5148609;27;20042;-64
2023/03/05 07:39:00;;;;;;;6.65;2.40;;;;;;;-0.15;80.73;147290.31;5149002;27;20023;-64
2023/03/05 07:41:26;;;;;;;8.02;3.40;;;;;;;-0.14;80.83;147294.13;5144196;27;20027;-65
2023/03/05 07:43:53;;;;;;;5.35;2.95;;;;;;;-0.06;80.89;147313.16;5148828;27;20034;-66
2023/03/05 07:46:23;;;;;;;5.43;3.00;;;;;;;-0.01;81.34;147327.16;5145889;27;20094;-65
2023/03/05 07:48:48;;;;;;;6.65;3.35;;;;;;;0.04;80.46;147338.59;5137161;27;20023;-65
2023/03/05 07:51:17;;;;;;;6.22;3.58;;;;;;;0.00;80.46;147328.47;5095776;27;20334;-65
2023/03/05 07:53:44;;;;;;;7.30;3.45;;;;;;;0.06;80.26;147342.41;5126533;28;20031;-64
2023/03/05 07:56:10;;;;;;;5.03;3.25;;;;;;;0.16;80.73;147367.88;5128900;27;20219;-65
2023/03/05 07:58:35;;;;;;;6.07;3.70;;;;;;;0.21;80.32;147379.28;5109565;28;20121;-63
2023/03/05 08:01:02;;;;;;;5.72;3.47;;;;;;;0.28;80.00;147398.34;5137623;27;20027;-64
2023/03/05 08:03:28;;;;;;;8.20;4.03;;;;;;;0.25;80.27;147390.72;5146934;27;20090;-65
2023/03/05 08:05:53;;;;;;;8.68;4.22;;;;;;;0.26;80.47;147393.28;5159433;27;20312;-64
2023/03/05 08:08:19;;;;;;;6.53;3.65;;;;;;;0.34;80.18;147413.66;5146885;27;20024;-65
2023/03/05 08:10:44;;;;;;;7.85;4.07;;;;;;;0.29;80.24;147400.91;5152197;27;20031;-65
2023/03/05 08:13:10;;;;;;;10.30;3.97;;;;;;;0.45;80.51;147439.06;5158473;27;20030;-65
2023/03/05 08:15:36;;;;;;;4.75;3.00;;;;;;;0.48;79.99;147447.94;5149659;27;20331;-64
2023/03/05 08:18:02;;;;;;;9.00;3.95;;;;;;;0.53;79.57;147459.44;5159593;27;20023;-63
2023/03/05 08:20:28;;;;;;;7.68;4.47;;;;;;;0.54;80.46;147460.69;5131953;27;20030;-63
2023/03/05 08:22:54;;;;;;;5.07;3.70;;;;;;;0.41;79.40;147430.16;5147490;27;20027;-63
2023/03/05 08:25:20;;;;;;;5.63;3.88;;;;;;;0.33;79.50;147409.84;5125112;28;20046;-64
2023/03/05 08:27:46;;;;;;;6.38;4.28;;;;;;;0.43;80.14;147433.94;5151171;27;20075;-64
2023/03/05 08:30:18;;;;;;;7.95;4.10;;;;;;;0.52;79.60;147456.88;5148958;27;20022;-64
2023/03/05 08:32:44;;;;;;;7.22;4.07;;;;;;;0.69;79.17;147498.84;5137434;27;20463;-64
2023/03/05 08:35:10;;;;;;;5.20;3.72;;;;;;;0.63;78.70;147483.59;5151401;27;20054;-64
2023/03/05 08:37:35;;;;;;;7.55;4.60;;;;;;;0.62;78.45;147482.31;5141837;27;20058;-64
2023/03/05 08:40:01;;;;;;;4.30;3.35;;;;;;;0.73;77.66;147509.03;5152077;27;20285;-64
2023/03/05 08:42:27;;;;;;;4.63;3.17;;;;;;;0.68;77.77;147497.59;5129159;27;20094;-64
2023/03/05 08:44:52;;;;;;;3.78;2.83;;;;;;;0.76;77.39;147515.41;5129618;27;20038;-65
2023/03/05 08:47:19;;;;;;;3.85;3.38;;;;;;;0.84;78.11;147535.72;5151971;27;20023;-63
2023/03/05 08:49:45;;;;;;;5.50;3.38;;;;;;;0.84;78.07;147535.72;5147208;27;20031;-64
2023/03/05 08:52:11;;;;;;;7.03;3.85;;;;;;;0.86;77.01;147542.09;5152002;27;20078;-64
2023/03/05 08:54:37;;;;;;;5.88;4.30;;;;;;;0.80;78.18;147526.84;5151186;27;20110;-64
2023/03/05 08:57:03;;;;;;;7.45;4.47;;;;;;;0.95;78.11;147563.72;5150270;27;20051;-64
2023/03/05 08:59:29;;;;;;;9.60;4.20;;;;;;;0.97;78.06;147568.84;5145195;27;20099;-64
2023/03/05 09:01:58;;;;;;;5.25;4.22;;;;;;;0.95;78.54;147562.47;5155486;27;20253;-64
2023/03/05 09:04:24;;;;;;;5.07;4.03;;;;;;;0.98;77.92;147570.09;5135694;27;20028;-64
2023/03/05 09:06:52;;;;;;;5.72;3.78;;;;;;;0.93;76.93;147557.41;5138618;27;20222;-64
2023/03/05 09:09:20;;;;;;;4.40;3.33;;;;;;;0.92;77.31;147556.09;5148514;27;20026;-64
2023/03/05 09:11:46;;;;;;;6.03;4.20;;;;;;;0.85;78.04;147538.28;5147253;27;20023;-64
2023/03/05 09:14:12;;;;;;;4.32;3.83;;;;;;;0.73;78.27;147507.72;5155098;27;20196;-63
2023/03/05 09:16:39;;;;;;;4.68;3.28;;;;;;;0.72;77.76;147506.47;5147100;27;20031;-64
2023/03/05 09:19:09;;;;;;;4.82;4.00;;;;;;;0.69;79.13;147498.84;5154785;27;20019;-64
2023/03/05 09:21:35;;;;;;;4.82;3.63;;;;;;;0.59;79.87;147474.69;5146945;27;20065;-64
2023/03/05 09:24:01;;;;;;;4.45;4.05;;;;;;;0.79;79.99;147523.03;5146549;27;20042;-63
2023/03/05 09:26:27;;;;;;;8.50;5.15;;;;;;;0.82;80.56;147530.66;5146174;27;20129;-64
2023/03/05 09:28:52;;;;;;;4.53;3.42;;;;;;;0.86;80.52;147540.84;5147719;27;20031;-64
2023/03/05 09:31:18;;;;;;;4.90;3.83;;;;;;;0.76;80.86;147516.66;5147445;27;20031;-64
2023/03/05 09:33:44;;;;;;;5.65;4.13;;;;;;;0.99;80.59;147572.66;5147611;27;20050;-65
2023/03/05 09:36:24;;;;;;;7.68;4.00;;;;;;;0.93;79.55;147557.41;5146861;27;20257;-65
2023/03/05 09:38:50;;;;;;;4.95;3.40;;;;;;;1.22;79.63;147628.66;5152525;27;20027;-65
2023/03/05 09:41:33;;;;;;;6.22;4.00;;;;;;;1.33;78.39;147657.91;5147138;27;20027;-65
2023/03/05 09:44:40;;;;;;;5.07;3.25;;;;;;;1.37;77.81;147668.09;5151642;27;20030;-64
2023/03/05 09:47:36;;;;;;;4.18;3.40;;;;;;;1.29;75.98;147647.72;5102527;27;20243;-64
2023/03/05 09:50:42;;;;;;;3.72;3.30;;;;;;;1.17;76.24;147617.22;5131473;27;20361;-64
2023/03/05 09:53:27;;;;;;;6.43;3.75;;;;;;;1.07;76.32;147591.72;5136851;27;20051;-64
2023/03/05 09:55:56;;;;;;;7.82;4.63;;;;;;;0.97;77.38;147568.84;5150896;27;20038;-64
2023/03/05 09:58:30;;;;;;;5.55;4.55;;;;;;;0.98;78.07;147570.09;5148133;27;20023;-64
2023/03/05 10:01:21;;;;;;;5.28;3.83;;;;;;;1.15;77.06;147612.09;5151714;27;20366;-64
2023/03/05 10:04:00;;;;;;;4.55;4.05;;;;;;;1.19;76.43;147622.28;5122433;27;20054;-65
2023/03/05 10:06:33;;;;;;;6.80;3.95;;;;;;;1.32;77.05;147655.34;5160025;27;20098;-64
2023/03/05 10:09:10;;;;;;;5.68;3.92;;;;;;;1.45;76.65;147687.16;5153666;27;20094;-65
2023/03/05 10:12:01;;;;;;;3.90;3.50;;;;;;;1.26;75.97;147638.84;5142015;27;20083;-64
2023/03/05 10:14:30;;;;;;;9.07;5.25;;;;;;;1.39;76.52;147671.91;5119499;28;20026;-66
2023/03/05 10:17:23;;;;;;;7.68;4.40;;;;;;;1.32;76.88;147655.34;5139043;27;20019;-67
2023/03/05 10:20:26;;;;;;;5.35;4.05;;;;;;;1.26;76.02;147638.84;5119641;27;20204;-65
2023/03/05 10:23:24;;;;;;;6.47;4.10;;;;;;;1.16;76.56;147615.91;5131401;27;20324;-64
2023/03/05 10:26:19;;;;;;;6.47;3.90;;;;;;;1.28;76.86;147643.91;5141983;27;20035;-65
2023/03/05 10:28:54;;;;;;;6.18;4.43;;;;;;;1.29;75.41;147646.47;5123990;27;20187;-64
2023/03/05 10:31:43;;;;;;;8.10;4.90;;;;;;;1.17;75.91;147618.47;5141021;27;20027;-64
2023/03/05 10:34:47;;;;;;;7.30;4.60;;;;;;;1.31;76.29;147652.84;5140229;27;20038;-66
2023/03/05 10:37:35;;;;;;;8.38;5.25;;;;;;;1.00;77.29;147575.22;5088779;28;20055;-64
2023/03/05 10:40:08;;;;;;;5.22;4.40;;;;;;;1.13;76.58;147608.28;5064974;28;20059;-64
2023/03/05 10:42:47;;;;;;;6.45;4.13;;;;;;;1.01;76.56;147577.72;5120393;27;20042;-65
2023/03/05 10:45:19;;;;;;;5.55;4.55;;;;;;;0.98;75.96;147570.09;5133656;27;20034;-65
2023/03/05 10:48:03;;;;;;;6.93;4.63;;;;;;;0.96;75.86;147565.03;5147963;27;20042;-64
2023/03/05 10:50:45;;;;;;;5.82;4.20;;;;;;;0.52;75.45;147456.88;5129679;27;20019;-65
2023/03/05 10:53:39;;;;;;;5.45;3.70;;;;;;;0.73;75.56;147509.03;5149446;27;20101;-65
2023/03/05 10:56:05;;;;;;;7.38;4.05;;;;;;;0.62;75.19;147481.06;5104127;27;20046;-65
2023/03/05 10:58:32;;;;;;;4.55;3.80;;;;;;;0.70;74.92;147501.41;5128980;27;20027;-65
2023/03/05 11:01:04;;;;;;;4.30;3.90;;;;;;;0.61;74.14;147479.75;5115188;27;20031;-65
2023/03/05 11:03:55;;;;;;;6.45;3.97;;;;;;;0.68;73.94;147497.59;5146244;27;20131;-65
2023/03/05 11:06:31;;;;;;;6.05;3.90;;;;;;;0.71;73.08;147502.66;5128228;27;20292;-65
2023/03/05 11:09:20;;;;;;;5.13;3.90;;;;;;;0.88;73.94;147545.91;5137626;27;20309;-66
2023/03/05 11:12:13;;;;;;;5.85;3.90;;;;;;;0.92;73.61;147554.84;5140111;27;20042;-66
2023/03/05 11:14:46;;;;;;;4.85;4.00;;;;;;;1.00;73.87;147575.22;5158624;27;20035;-64
2023/03/05 11:17:31;;;;;;;5.13;4.63;;;;;;;0.75;73.02;147514.09;5150204;27;20198;-65
2023/03/05 11:20:26;;;;;;;5.10;4.50;;;;;;;0.62;74.63;147481.06;5158843;27;20098;-66
2023/03/05 11:23:14;;;;;;;6.68;5.10;;;;;;;0.63;75.68;147483.59;5143646;27;20054;-64
2023/03/05 11:25:56;;;;;;;6.25;5.05;;;;;;;0.73;75.33;147509.03;5146583;27;20278;-65
2023/03/05 11:28:25;;;;;;;7.22;5.53;;;;;;;0.65;75.52;147488.69;5150130;27;20035;-64
2023/03/05 11:30:56;;;;;;;6.03;5.43;;;;;;;0.58;75.75;147470.88;5144490;27;20043;-64
2023/03/05 11:33:23;;;;;;;7.35;5.32;;;;;;;0.58;77.43;147472.13;5144742;27;20431;-65
2023/03/05 11:35:51;;;;;;;8.30;5.53;;;;;;;0.72;76.30;147506.47;5131568;27;20204;-66
2023/03/05 11:38:26;;;;;;;6.63;5.72;;;;;;;0.84;76.98;147535.72;5158871;27;20038;-65